createdAt,value
2018-06-15T11:59:56.708Z,24.20
2018-06-15T12:02:24.787Z,24.21
2018-06-15T12:04:52.876Z,24.01
2018-06-15T12:07:20.972Z,23.07
2018-06-15T12:09:49.136Z,23.07
2018-06-15T12:12:17.217Z,23.66
2018-06-15T12:14:45.290Z,23.84
2018-06-15T12:17:13.407Z,24.03
2018-06-15T12:19:41.667Z,24.34
2018-06-15T12:22:10.461Z,23.98
2018-06-15T12:24:38.515Z,23.26
2018-06-15T12:27:06.746Z,22.83
2018-06-15T12:29:34.949Z,23.62
2018-06-15T12:32:03.052Z,23.78
2018-06-15T12:34:31.233Z,23.54
2018-06-15T12:36:59.317Z,23.38
2018-06-15T12:39:27.600Z,23.24
2018-06-15T12:41:55.839Z,22.97
2018-06-15T12:44:24.544Z,22.17
2018-06-15T12:46:52.924Z,22.49
2018-06-15T12:49:20.996Z,22.77
2018-06-15T12:51:49.133Z,23.00
2018-06-15T12:54:17.268Z,23.54
2018-06-15T12:56:45.401Z,24.16
2018-06-15T12:59:13.713Z,24.66
2018-06-15T13:01:41.913Z,25.15
2018-06-15T13:04:10.169Z,25.56
2018-06-15T13:06:38.473Z,25.69
2018-06-15T13:09:08.727Z,25.74
2018-06-15T13:11:36.805Z,25.39
2018-06-15T13:14:05.036Z,24.65
2018-06-15T13:16:33.136Z,23.47
2018-06-15T13:19:01.312Z,23.11
2018-06-15T13:21:29.820Z,23.58
2018-06-15T13:24:03.988Z,23.18
2018-06-15T13:26:32.060Z,23.34
2018-06-15T13:29:00.252Z,23.24
2018-06-15T13:31:28.387Z,22.68
2018-06-15T13:33:56.650Z,23.09
2018-06-15T13:36:25.020Z,23.26
2018-06-15T13:38:53.111Z,23.13
2018-06-15T13:41:21.174Z,22.87
2018-06-15T13:43:49.259Z,22.86
2018-06-15T13:46:17.405Z,23.32
2018-06-15T13:48:46.010Z,23.91
2018-06-15T13:51:14.389Z,24.13
2018-06-15T13:53:42.606Z,24.18
2018-06-15T13:56:10.896Z,23.94
2018-06-15T13:58:39.237Z,23.82
2018-06-15T14:03:59.788Z,23.71
2018-06-15T14:06:27.877Z,23.18
2018-06-15T14:08:56.316Z,23.06
2018-06-15T14:14:17.021Z,22.81
2018-06-15T14:16:45.312Z,22.54
2018-06-15T14:19:13.619Z,22.47
2018-06-15T14:21:41.696Z,22.34
2018-06-15T14:24:09.864Z,22.29
2018-06-15T14:26:38.063Z,22.26
2018-06-15T14:32:21.034Z,22.23
2018-06-15T14:34:50.006Z,22.48
2018-06-15T14:37:18.215Z,23.02
2018-06-15T14:39:46.332Z,23.13
2018-06-15T14:42:14.516Z,23.14
2018-06-15T14:44:42.684Z,23.67
2018-06-15T14:47:10.875Z,23.91
2018-06-15T14:49:39.101Z,24.41
2018-06-15T14:52:07.197Z,24.64
2018-06-15T14:54:35.947Z,24.43
2018-06-15T14:57:04.227Z,24.63
2018-06-15T14:59:32.752Z,25.07
2018-06-15T15:02:00.849Z,25.10
2018-06-15T15:04:28.952Z,24.79
2018-06-15T15:06:57.331Z,25.24
2018-06-15T15:09:25.679Z,24.89
2018-06-15T15:11:53.868Z,24.65
2018-06-15T15:14:21.964Z,24.15
2018-06-15T15:16:51.872Z,24.07
2018-06-15T15:19:19.995Z,23.60
2018-06-15T15:21:48.120Z,23.30
2018-06-15T15:24:16.258Z,23.20
2018-06-15T15:26:44.572Z,23.32
2018-06-15T15:32:06.118Z,23.26
2018-06-15T15:34:34.412Z,23.26
2018-06-15T15:37:02.649Z,23.02
2018-06-15T15:39:31.035Z,22.78
2018-06-15T15:44:51.595Z,22.41
2018-06-15T15:47:19.696Z,22.41
2018-06-15T15:49:48.009Z,22.31
2018-06-15T15:52:16.363Z,22.32
2018-06-15T15:54:44.565Z,22.38
2018-06-15T15:57:12.803Z,22.42
2018-06-15T15:59:41.085Z,22.70
2018-06-15T16:02:09.380Z,23.25
2018-06-15T16:04:37.792Z,23.77
2018-06-15T16:07:05.932Z,23.92
2018-06-15T16:09:34.003Z,24.03
2018-06-15T16:12:02.099Z,24.19
2018-06-15T16:14:30.480Z,24.41
2018-06-15T16:16:58.576Z,24.26
2018-06-15T16:19:26.683Z,24.07
2018-06-15T16:21:55.058Z,24.36
2018-06-15T16:24:23.581Z,24.81
2018-06-15T16:26:51.708Z,25.15
2018-06-15T16:29:20.757Z,25.74
2018-06-15T16:31:49.052Z,25.73
2018-06-15T16:34:17.127Z,26.07
2018-06-15T16:36:45.260Z,26.46
2018-06-15T16:39:13.327Z,25.84
2018-06-15T16:41:41.619Z,26.35
2018-06-15T16:44:09.697Z,26.14
2018-06-15T16:46:37.772Z,26.39
2018-06-15T16:49:05.840Z,26.18
2018-06-15T16:51:34.154Z,25.44
2018-06-15T16:54:02.213Z,24.32
2018-06-15T16:56:30.400Z,24.43
2018-06-15T16:58:58.496Z,25.66
2018-06-15T17:01:26.575Z,25.19
2018-06-15T17:03:54.767Z,25.47
2018-06-15T17:06:22.868Z,25.12
2018-06-15T17:08:50.953Z,24.47
2018-06-15T17:11:19.023Z,23.85
2018-06-15T17:13:47.204Z,24.06
2018-06-15T17:16:15.324Z,23.92
2018-06-15T17:18:43.422Z,24.28
2018-06-15T17:21:11.481Z,24.56
2018-06-15T17:23:39.788Z,24.26
2018-06-15T17:26:07.799Z,23.99
2018-06-15T17:28:35.884Z,24.54
2018-06-15T17:31:04.179Z,24.46
2018-06-15T17:33:32.276Z,25.00
2018-06-15T17:36:00.356Z,25.36
2018-06-15T17:38:28.577Z,25.39
2018-06-15T17:40:56.908Z,24.92
2018-06-15T17:43:25.106Z,24.07
2018-06-15T17:45:53.213Z,23.94
2018-06-15T17:48:21.304Z,23.83
2018-06-15T17:50:49.471Z,23.91
2018-06-15T17:53:17.787Z,23.62
2018-06-15T17:55:46.056Z,23.53
2018-06-15T17:58:14.334Z,22.95
2018-06-15T18:00:42.711Z,22.74
2018-06-15T18:03:10.878Z,22.85
2018-06-15T18:05:39.394Z,22.84
2018-06-15T18:08:07.992Z,22.98
2018-06-15T18:10:36.392Z,22.70
2018-06-15T18:13:04.689Z,22.66
2018-06-15T18:15:32.956Z,22.58
2018-06-15T18:18:01.926Z,22.32
2018-06-15T18:20:30.297Z,22.21
2018-06-15T18:22:58.517Z,22.05
2018-06-15T18:25:26.876Z,21.96
2018-06-15T18:27:55.396Z,21.97
2018-06-15T18:30:24.096Z,21.97
2018-06-15T18:32:52.207Z,21.83
2018-06-15T18:35:20.883Z,21.76
2018-06-15T18:37:49.139Z,21.72
2018-06-15T18:40:17.678Z,21.64
2018-06-15T18:42:46.020Z,21.58
2018-06-15T18:45:14.536Z,21.54
2018-06-15T18:47:42.688Z,21.46
2018-06-15T18:50:10.838Z,21.37
2018-06-15T18:52:39.616Z,21.31
2018-06-15T18:55:08.226Z,21.21
2018-06-15T18:57:36.555Z,21.07
2018-06-15T19:00:05.460Z,21.00
2018-06-15T19:02:33.903Z,20.92
2018-06-15T19:05:02.338Z,20.98
2018-06-15T19:07:30.518Z,20.92
2018-06-15T19:09:59.853Z,20.79
2018-06-15T19:12:30.296Z,20.59
2018-06-15T19:14:59.550Z,20.40
2018-06-15T19:17:28.600Z,20.26
2018-06-15T19:19:57.895Z,20.20
2018-06-15T19:22:26.049Z,20.18
2018-06-15T19:24:54.250Z,20.09
2018-06-15T19:27:22.439Z,19.95
2018-06-15T19:29:51.953Z,19.86
2018-06-15T19:32:21.355Z,19.80
2018-06-15T19:34:49.642Z,19.71
2018-06-15T19:37:18.134Z,19.59
2018-06-15T19:40:00.337Z,19.49
2018-06-15T19:42:28.496Z,19.39
2018-06-15T19:44:56.679Z,19.34
2018-06-15T19:47:25.568Z,19.29
2018-06-15T19:49:53.760Z,19.20
2018-06-15T19:52:26.008Z,19.15
2018-06-15T19:54:54.280Z,19.01
2018-06-15T19:57:23.009Z,18.94
2018-06-15T19:59:51.999Z,18.86
2018-06-15T20:02:21.463Z,18.82
2018-06-15T20:04:49.654Z,18.83
2018-06-15T20:07:18.028Z,18.78
2018-06-15T20:09:47.156Z,18.70
2018-06-15T20:12:15.772Z,18.70
2018-06-15T20:15:00.845Z,18.69
2018-06-15T20:17:29.236Z,18.69
2018-06-15T20:19:57.602Z,18.58
2018-06-15T20:22:25.952Z,18.47
2018-06-15T20:30:56.728Z,18.21
2018-06-15T20:33:27.061Z,18.03
2018-06-15T20:46:49.537Z,17.73
2018-06-15T20:52:10.976Z,17.54
2018-06-15T20:54:49.988Z,17.41
2018-06-15T20:57:25.473Z,17.33
2018-06-15T20:59:55.670Z,17.26
2018-06-15T21:02:46.151Z,17.27
2018-06-15T21:05:20.257Z,17.17
2018-06-15T21:07:53.834Z,17.18
2018-06-15T21:10:38.513Z,17.14
2018-06-15T21:13:28.336Z,17.13
2018-06-15T21:16:10.285Z,17.06
2018-06-15T21:18:41.085Z,17.00
2018-06-15T21:21:45.129Z,17.03
2018-06-15T21:24:47.065Z,16.98
2018-06-15T21:27:17.165Z,16.88
2018-06-15T21:29:46.992Z,16.83
2018-06-15T21:32:17.416Z,16.72
2018-06-15T21:34:46.476Z,16.73
2018-06-15T21:37:17.236Z,16.89
2018-06-15T21:39:55.953Z,16.77
2018-06-15T21:42:31.341Z,16.84
2018-06-15T21:50:56.876Z,16.69
2018-06-15T21:56:12.409Z,16.38
2018-06-15T21:58:46.759Z,16.31
2018-06-15T22:02:50.504Z,16.20
2018-06-15T22:05:26.016Z,16.14
2018-06-15T22:07:55.906Z,15.97
2018-06-15T22:10:26.852Z,15.92
2018-06-15T22:16:00.026Z,15.85
2018-06-15T22:18:29.409Z,15.87
2018-06-15T22:21:05.547Z,15.91
2018-06-15T22:23:38.629Z,15.91
2018-06-15T22:26:08.401Z,15.90
2018-06-15T22:28:52.398Z,15.83
2018-06-15T22:31:21.230Z,15.75
2018-06-15T22:33:50.573Z,15.68
2018-06-15T22:36:20.581Z,15.66
2018-06-15T22:38:50.657Z,15.70
2018-06-15T22:41:22.420Z,15.72
2018-06-15T22:46:37.712Z,15.61
2018-06-15T22:49:07.095Z,15.57
2018-06-15T22:51:35.952Z,15.47
2018-06-15T23:28:39.510Z,14.81
2018-06-15T23:31:10.029Z,14.92
2018-06-15T23:33:45.748Z,14.74
2018-06-15T23:36:15.660Z,14.55
2018-06-15T23:38:44.354Z,14.53
2018-06-15T23:41:23.448Z,14.45
2018-06-15T23:44:03.878Z,14.40
2018-06-15T23:46:37.610Z,14.38
2018-06-15T23:49:13.339Z,14.36
2018-06-15T23:51:56.356Z,14.31
2018-06-15T23:54:25.778Z,14.26
2018-06-15T23:56:57.412Z,14.23
2018-06-15T23:59:34.393Z,14.22
